createdAt,value
2024-02-18T00:00:06.144Z,11.37
2024-02-18T00:02:36.286Z,11.36
2024-02-18T00:05:05.885Z,11.35
2024-02-18T00:07:33.285Z,11.30
2024-02-18T00:10:00.272Z,11.31
2024-02-18T00:12:27.142Z,11.32
2024-02-18T00:14:53.963Z,11.32
2024-02-18T00:17:20.699Z,11.32
2024-02-18T00:19:47.762Z,11.30
2024-02-18T00:22:14.712Z,11.28
2024-02-18T00:24:41.695Z,11.29
2024-02-18T00:27:10.814Z,11.28
2024-02-18T00:29:37.681Z,11.29
2024-02-18T00:32:04.715Z,11.30
2024-02-18T00:34:31.914Z,11.25
2024-02-18T00:36:58.947Z,11.23
2024-02-18T00:39:25.983Z,11.23
2024-02-18T00:41:52.768Z,11.25
2024-02-18T00:44:20.783Z,11.23
2024-02-18T00:46:57.153Z,11.24
2024-02-18T00:49:30.802Z,11.20
2024-02-18T00:51:57.668Z,11.22
2024-02-18T00:54:24.557Z,11.18
2024-02-18T00:56:51.521Z,11.20
2024-02-18T00:59:18.396Z,11.20
2024-02-18T01:01:45.433Z,11.20
2024-02-18T01:04:12.476Z,11.16
2024-02-18T01:06:39.910Z,11.19
2024-02-18T01:09:06.692Z,11.16
2024-02-18T01:11:33.604Z,11.12
2024-02-18T01:14:00.421Z,11.12
2024-02-18T01:16:30.233Z,11.06
2024-02-18T01:18:57.396Z,11.08
2024-02-18T01:21:24.329Z,11.10
2024-02-18T01:23:51.165Z,11.08
2024-02-18T01:26:17.900Z,11.02
2024-02-18T01:28:44.635Z,11.06
2024-02-18T01:31:11.410Z,11.05
2024-02-18T01:33:38.408Z,11.03
2024-02-18T01:36:05.647Z,11.01
2024-02-18T01:38:33.748Z,11.00
2024-02-18T01:41:00.602Z,10.96
2024-02-18T01:43:27.605Z,10.97
2024-02-18T01:45:54.370Z,10.98
2024-02-18T01:48:21.818Z,10.94
2024-02-18T01:50:49.157Z,10.91
2024-02-18T01:53:16.286Z,10.89
2024-02-18T01:55:43.489Z,10.84
2024-02-18T01:58:10.359Z,10.82
2024-02-18T02:00:40.412Z,10.83
2024-02-18T02:03:08.476Z,10.85
2024-02-18T02:05:39.411Z,10.82
2024-02-18T02:08:06.766Z,10.86
2024-02-18T02:10:33.876Z,10.79
2024-02-18T02:13:00.993Z,10.79
2024-02-18T02:15:27.933Z,10.77
2024-02-18T02:17:54.866Z,10.78
2024-02-18T02:20:21.761Z,10.78
2024-02-18T02:22:48.497Z,10.79
2024-02-18T02:25:15.786Z,10.78
2024-02-18T02:27:43.922Z,10.75
2024-02-18T02:30:11.224Z,10.73
2024-02-18T02:32:38.075Z,10.74
2024-02-18T02:35:05.457Z,10.74
2024-02-18T02:37:32.882Z,10.74
2024-02-18T02:39:59.820Z,10.76
2024-02-18T02:42:27.285Z,10.73
2024-02-18T02:44:54.025Z,10.72
2024-02-18T02:47:20.847Z,10.74
2024-02-18T02:49:47.797Z,10.72
2024-02-18T02:52:14.940Z,10.72
2024-02-18T02:54:41.763Z,10.72
2024-02-18T02:57:08.758Z,10.72
2024-02-18T02:59:35.492Z,10.72
2024-02-18T03:02:02.318Z,10.72
2024-02-18T03:04:29.232Z,10.75
2024-02-18T03:06:56.148Z,10.70
2024-02-18T03:09:23.012Z,10.71
2024-02-18T03:11:49.909Z,10.70
2024-02-18T03:14:16.715Z,10.70
2024-02-18T03:16:44.445Z,10.69
2024-02-18T03:19:12.593Z,10.68
2024-02-18T03:21:39.940Z,10.68
2024-02-18T03:24:06.793Z,10.63
2024-02-18T03:26:33.751Z,10.60
2024-02-18T03:29:00.565Z,10.60
2024-02-18T03:31:27.306Z,10.60
2024-02-18T03:33:54.210Z,10.57
2024-02-18T03:36:21.027Z,10.56
2024-02-18T03:38:47.863Z,10.56
2024-02-18T03:41:14.894Z,10.55
2024-02-18T03:43:41.697Z,10.54
2024-02-18T03:46:09.716Z,10.55
2024-02-18T03:48:36.957Z,10.52
2024-02-18T03:51:03.734Z,10.53
2024-02-18T03:53:30.466Z,10.50
2024-02-18T03:55:57.214Z,10.51
2024-02-18T03:58:24.708Z,10.48
2024-02-18T04:00:51.772Z,10.47
2024-02-18T04:03:18.604Z,10.45
2024-02-18T04:05:45.615Z,10.40
2024-02-18T04:08:12.654Z,10.37
2024-02-18T04:10:39.370Z,10.33
2024-02-18T04:13:06.065Z,10.32
2024-02-18T04:15:32.919Z,10.27
2024-02-18T04:17:59.824Z,10.20
2024-02-18T04:20:26.601Z,10.18
2024-02-18T04:22:53.370Z,10.16
2024-02-18T04:25:20.211Z,10.15
2024-02-18T04:27:47.063Z,10.13
2024-02-18T04:30:14.196Z,10.08
2024-02-18T04:32:41.212Z,10.03
2024-02-18T04:35:08.252Z,10.05
2024-02-18T04:37:35.169Z,9.98
2024-02-18T04:40:02.143Z,9.99
2024-02-18T04:42:28.909Z,9.93
2024-02-18T04:44:55.746Z,9.91
2024-02-18T04:47:23.865Z,9.91
2024-02-18T04:49:50.854Z,9.93
2024-02-18T04:52:17.648Z,9.86
2024-02-18T04:54:44.621Z,9.88
2024-02-18T04:57:11.557Z,9.84
2024-02-18T04:59:38.613Z,9.80
2024-02-18T05:02:05.796Z,9.82
2024-02-18T05:04:33.412Z,9.82
2024-02-18T05:07:01.182Z,9.72
2024-02-18T05:09:28.168Z,9.72
2024-02-18T05:11:55.619Z,9.72
2024-02-18T05:14:22.791Z,9.65
2024-02-18T05:16:49.759Z,9.63
2024-02-18T05:19:17.470Z,9.56
2024-02-18T05:21:44.441Z,9.59
2024-02-18T05:24:11.350Z,9.53
2024-02-18T05:26:38.132Z,9.52
2024-02-18T05:29:04.877Z,9.50
2024-02-18T05:31:31.650Z,9.47
2024-02-18T05:33:58.925Z,9.40
2024-02-18T05:36:25.907Z,9.39
2024-02-18T05:38:52.811Z,9.30
2024-02-18T05:41:19.568Z,9.32
2024-02-18T05:43:46.410Z,9.29
2024-02-18T05:46:13.259Z,9.22
2024-02-18T05:48:40.703Z,9.24
2024-02-18T05:51:08.736Z,9.23
2024-02-18T05:53:35.919Z,9.25
2024-02-18T05:56:02.763Z,9.22
2024-02-18T05:58:29.762Z,9.20
2024-02-18T06:00:56.868Z,9.21
2024-02-18T06:03:23.781Z,9.15
2024-02-18T06:05:50.734Z,9.10
2024-02-18T06:08:17.815Z,9.10
2024-02-18T06:10:44.813Z,9.14
2024-02-18T06:13:11.984Z,8.98
2024-02-18T06:15:38.906Z,8.96
2024-02-18T06:18:06.022Z,9.01
2024-02-18T06:20:32.774Z,9.03
2024-02-18T06:22:59.613Z,9.14
2024-02-18T06:25:26.461Z,8.99
2024-02-18T06:27:53.502Z,8.95
2024-02-18T06:30:20.478Z,8.98
2024-02-18T06:32:47.311Z,8.95
2024-02-18T06:35:14.206Z,8.98
2024-02-18T06:37:42.919Z,9.02
2024-02-18T06:40:11.219Z,9.07
2024-02-18T06:42:38.187Z,9.05
2024-02-18T06:45:05.298Z,9.05
2024-02-18T06:47:32.408Z,8.98
2024-02-18T06:49:59.524Z,9.02
2024-02-18T06:52:26.369Z,8.99
2024-02-18T06:54:53.188Z,9.02
2024-02-18T06:57:20.037Z,9.01
2024-02-18T06:59:46.750Z,9.01
2024-02-18T07:02:13.716Z,9.12
2024-02-18T07:04:40.649Z,9.07
2024-02-18T07:07:07.509Z,9.09
2024-02-18T07:09:34.274Z,9.07
2024-02-18T07:12:01.252Z,9.13
2024-02-18T07:14:27.982Z,9.14
2024-02-18T07:16:54.750Z,9.06
2024-02-18T07:19:21.586Z,9.12
2024-02-18T07:21:48.424Z,9.16
2024-02-18T07:24:15.197Z,9.20
2024-02-18T07:26:41.954Z,9.19
2024-02-18T07:29:08.742Z,9.12
2024-02-18T07:31:38.346Z,9.18
2024-02-18T07:34:06.049Z,9.24
2024-02-18T07:36:34.442Z,9.22
2024-02-18T07:39:01.301Z,9.23
2024-02-18T07:41:28.036Z,9.27
2024-02-18T07:43:54.878Z,9.23
2024-02-18T07:46:22.006Z,9.26
2024-02-18T07:48:48.956Z,9.25
2024-02-18T07:51:15.766Z,9.23
2024-02-18T07:53:42.584Z,9.27
2024-02-18T07:56:09.688Z,9.26
2024-02-18T07:58:36.478Z,9.31
2024-02-18T08:01:03.326Z,9.28
2024-02-18T08:03:30.153Z,9.38
2024-02-18T08:05:56.957Z,9.30
2024-02-18T08:08:23.879Z,9.36
2024-02-18T08:10:51.040Z,9.32
2024-02-18T08:13:18.108Z,9.35
2024-02-18T08:15:45.172Z,9.34
2024-02-18T08:18:12.162Z,9.29
2024-02-18T08:20:41.908Z,9.36
2024-02-18T08:23:09.165Z,9.29
2024-02-18T08:25:36.566Z,9.30
2024-02-18T08:28:04.051Z,9.34
2024-02-18T08:30:30.916Z,9.38
2024-02-18T08:32:57.732Z,9.47
2024-02-18T08:35:24.719Z,9.45
2024-02-18T08:37:51.981Z,9.45
2024-02-18T08:40:18.999Z,9.50
2024-02-18T08:42:46.015Z,9.51
2024-02-18T08:45:12.830Z,9.53
2024-02-18T08:47:39.683Z,9.52
2024-02-18T08:50:07.391Z,9.54
2024-02-18T08:52:34.376Z,9.62
2024-02-18T08:55:01.297Z,9.63
2024-02-18T08:57:28.289Z,9.64
2024-02-18T08:59:56.365Z,9.62
2024-02-18T09:02:23.108Z,9.63
2024-02-18T09:04:50.369Z,9.68
2024-02-18T09:07:17.359Z,9.72
2024-02-18T09:09:44.192Z,9.75
2024-02-18T09:12:11.001Z,9.83
2024-02-18T09:14:37.729Z,9.84
2024-02-18T09:17:04.534Z,9.84
2024-02-18T09:19:31.363Z,9.86
2024-02-18T09:21:58.458Z,9.87
2024-02-18T09:24:27.882Z,9.90
2024-02-18T09:27:32.280Z,9.91
2024-02-18T09:29:59.085Z,9.98
2024-02-18T09:32:25.895Z,9.99
2024-02-18T09:34:52.995Z,10.05
2024-02-18T09:37:20.103Z,10.08
2024-02-18T09:39:46.917Z,10.09
2024-02-18T09:42:14.181Z,10.14
2024-02-18T09:44:43.425Z,10.15
2024-02-18T09:47:13.595Z,10.20
2024-02-18T09:49:40.644Z,10.21
2024-02-18T09:52:07.704Z,10.25
2024-02-18T09:54:35.492Z,10.27
2024-02-18T09:57:02.501Z,10.31
2024-02-18T09:59:29.687Z,10.33
2024-02-18T10:02:00.749Z,10.34
2024-02-18T10:04:27.607Z,10.36
2024-02-18T10:06:55.493Z,10.36
2024-02-18T10:09:24.979Z,10.38
2024-02-18T10:11:53.006Z,10.40
2024-02-18T10:14:24.253Z,10.43
2024-02-18T10:16:51.125Z,10.47
2024-02-18T10:19:18.018Z,10.47
2024-02-18T10:21:45.272Z,10.50
2024-02-18T10:24:13.335Z,10.51
2024-02-18T10:26:40.036Z,10.55
2024-02-18T10:29:06.864Z,10.56
2024-02-18T10:31:34.254Z,10.59
2024-02-18T10:34:01.293Z,10.62
2024-02-18T10:36:31.317Z,10.64
2024-02-18T10:38:59.353Z,10.65
2024-02-18T10:41:33.877Z,10.67
2024-02-18T10:44:01.893Z,10.71
2024-02-18T10:46:28.743Z,10.73
2024-02-18T10:49:02.332Z,10.74
2024-02-18T10:51:39.145Z,10.76
2024-02-18T10:54:41.513Z,10.75
2024-02-18T10:57:08.358Z,10.84
2024-02-18T11:00:08.852Z,10.82
2024-02-18T11:03:01.775Z,10.85
2024-02-18T11:09:42.680Z,10.91
2024-02-18T11:12:10.253Z,10.94
2024-02-18T11:14:38.428Z,10.93
2024-02-18T11:17:05.268Z,10.96
2024-02-18T11:19:35.485Z,10.95
2024-02-18T11:22:02.963Z,10.98
2024-02-18T11:24:30.245Z,11.00
2024-02-18T11:26:57.010Z,11.03
2024-02-18T11:29:23.728Z,11.04
2024-02-18T11:31:51.443Z,11.06
2024-02-18T11:34:18.302Z,11.08
2024-02-18T11:36:45.190Z,11.06
2024-02-18T11:39:11.991Z,11.07
2024-02-18T11:41:38.775Z,11.08
2024-02-18T11:44:12.363Z,11.05
2024-02-18T11:46:41.604Z,11.08
2024-02-18T11:49:08.639Z,11.08
2024-02-18T11:51:35.700Z,11.10
2024-02-18T11:54:02.695Z,11.11
2024-02-18T11:56:29.810Z,11.12
2024-02-18T11:58:56.588Z,11.11
2024-02-18T12:01:26.912Z,11.12
2024-02-18T12:03:57.306Z,11.12
2024-02-18T12:06:24.899Z,11.14
2024-02-18T12:08:51.940Z,11.14
2024-02-18T12:11:18.856Z,11.16
2024-02-18T12:13:45.725Z,11.20
2024-02-18T12:16:12.878Z,11.21
2024-02-18T12:18:40.258Z,11.24
2024-02-18T12:21:08.182Z,11.27
2024-02-18T12:23:41.042Z,11.28
2024-02-18T12:26:07.828Z,11.33
2024-02-18T12:28:34.523Z,11.36
2024-02-18T12:31:01.287Z,11.37
2024-02-18T12:33:28.217Z,11.38
2024-02-18T12:35:55.135Z,11.38
2024-02-18T12:38:22.257Z,11.39
2024-02-18T12:40:55.410Z,11.38
2024-02-18T12:43:55.501Z,11.25
2024-02-18T12:46:11.210Z,11.38
2024-02-18T12:48:38.525Z,11.41
2024-02-18T12:51:13.617Z,11.39
2024-02-18T12:53:41.815Z,11.43
2024-02-18T12:56:09.920Z,11.43
2024-02-18T12:58:39.998Z,11.46
2024-02-18T13:01:08.184Z,11.46
2024-02-18T13:03:35.664Z,11.45
2024-02-18T13:06:03.512Z,11.46
2024-02-18T13:08:30.565Z,11.45
2024-02-18T13:10:57.794Z,11.46
2024-02-18T13:13:24.704Z,11.46
2024-02-18T13:15:54.663Z,11.46
2024-02-18T13:18:21.547Z,11.50
2024-02-18T13:20:48.450Z,11.53
2024-02-18T13:23:15.212Z,11.52
2024-02-18T13:25:41.962Z,11.55
2024-02-18T13:28:09.310Z,11.55
2024-02-18T13:30:36.208Z,11.57
2024-02-18T13:33:03.420Z,11.58
2024-02-18T13:35:30.274Z,11.59
2024-02-18T13:37:57.068Z,11.62
2024-02-18T13:40:23.900Z,11.62
2024-02-18T13:42:50.718Z,11.64
2024-02-18T13:45:18.445Z,11.62
2024-02-18T13:47:45.834Z,11.64
2024-02-18T13:50:12.893Z,11.63
2024-02-18T13:52:39.679Z,11.64
2024-02-18T13:55:06.822Z,11.65
2024-02-18T13:57:33.707Z,11.65
2024-02-18T14:00:00.568Z,11.64
2024-02-18T14:02:27.302Z,11.61
2024-02-18T14:04:54.052Z,11.63
2024-02-18T14:07:21.909Z,11.61
2024-02-18T14:09:50.145Z,11.59
2024-02-18T14:12:17.205Z,11.58
2024-02-18T14:14:49.399Z,11.55
2024-02-18T14:17:16.560Z,11.54
2024-02-18T14:19:43.690Z,11.52
2024-02-18T14:22:10.989Z,11.52
2024-02-18T14:24:37.829Z,11.48
2024-02-18T14:27:04.625Z,11.48
2024-02-18T14:29:31.467Z,11.47
2024-02-18T14:31:59.956Z,11.48
2024-02-18T14:34:28.175Z,11.47
2024-02-18T14:36:55.036Z,11.47
2024-02-18T14:39:21.720Z,11.44
2024-02-18T14:41:48.428Z,11.45
2024-02-18T14:44:15.250Z,11.44
2024-02-18T14:46:42.025Z,11.43
2024-02-18T14:49:09.573Z,11.42
2024-02-18T14:51:36.477Z,11.41
2024-02-18T14:54:03.268Z,11.39
2024-02-18T14:56:30.330Z,11.39
2024-02-18T14:58:57.286Z,11.33
2024-02-18T15:01:24.268Z,11.35
2024-02-18T15:03:51.277Z,11.34
2024-02-18T15:06:18.169Z,11.28
2024-02-18T15:08:45.153Z,11.31
2024-02-18T15:11:12.026Z,11.33
2024-02-18T15:13:39.459Z,11.32
2024-02-18T15:16:06.873Z,11.28
2024-02-18T15:18:34.304Z,11.28
2024-02-18T15:21:01.220Z,11.28
2024-02-18T15:23:28.119Z,11.27
2024-02-18T15:25:54.848Z,11.25
2024-02-18T15:28:21.602Z,11.22
2024-02-18T15:30:48.433Z,11.24
2024-02-18T15:33:15.287Z,11.23
2024-02-18T15:35:45.345Z,11.22
2024-02-18T15:38:12.079Z,11.23
2024-02-18T15:40:38.925Z,11.22
2024-02-18T15:43:06.724Z,11.23
2024-02-18T15:45:33.943Z,11.21
2024-02-18T15:48:00.866Z,11.22
2024-02-18T15:50:27.651Z,11.23
2024-02-18T15:52:54.681Z,11.18
2024-02-18T15:55:22.437Z,11.22
2024-02-18T15:57:51.167Z,11.19
2024-02-18T16:00:18.235Z,11.21
2024-02-18T16:02:45.063Z,11.18
2024-02-18T16:05:11.897Z,11.20
2024-02-18T16:07:41.953Z,11.21
2024-02-18T16:10:09.469Z,11.20
2024-02-18T16:12:36.303Z,11.21
2024-02-18T16:15:03.208Z,11.20
2024-02-18T16:17:30.290Z,11.21
2024-02-18T16:19:57.516Z,11.18
2024-02-18T16:22:24.362Z,11.19
2024-02-18T16:24:51.209Z,11.19
2024-02-18T16:27:18.064Z,11.17
2024-02-18T16:29:44.842Z,11.18
2024-02-18T16:32:13.208Z,11.17
2024-02-18T16:34:40.613Z,11.16
2024-02-18T16:37:07.871Z,11.16
2024-02-18T16:39:36.619Z,11.16
2024-02-18T16:42:04.178Z,11.14
2024-02-18T16:44:31.133Z,11.12
2024-02-18T16:47:01.202Z,11.12
2024-02-18T16:49:28.296Z,11.11
2024-02-18T16:51:59.478Z,11.12
2024-02-18T16:54:26.605Z,11.13
2024-02-18T16:56:53.359Z,11.11
2024-02-18T16:59:20.143Z,11.11
2024-02-18T17:01:51.641Z,11.09
2024-02-18T17:04:19.247Z,11.10
2024-02-18T17:06:46.364Z,11.08
2024-02-18T17:09:13.447Z,11.08
2024-02-18T17:11:40.514Z,11.08
2024-02-18T17:14:07.303Z,11.06
2024-02-18T17:16:37.289Z,11.07
2024-02-18T17:19:08.165Z,11.07
2024-02-18T17:21:35.276Z,11.08
2024-02-18T17:24:05.239Z,11.07
2024-02-18T17:26:32.572Z,11.08
2024-02-18T17:28:59.632Z,11.07
2024-02-18T17:31:27.375Z,11.04
2024-02-18T17:33:57.263Z,11.03
2024-02-18T17:36:24.548Z,11.02
2024-02-18T17:38:51.283Z,11.03
2024-02-18T17:41:18.260Z,11.01
2024-02-18T17:43:45.008Z,11.00
2024-02-18T17:46:11.926Z,11.00
2024-02-18T17:48:39.666Z,10.99
2024-02-18T17:51:07.597Z,10.98
2024-02-18T17:53:35.734Z,10.98
2024-02-18T17:56:02.646Z,10.98
2024-02-18T17:58:30.976Z,10.95
2024-02-18T18:00:57.903Z,10.94
2024-02-18T18:03:24.717Z,10.93
2024-02-18T18:05:51.663Z,10.93
2024-02-18T18:08:18.459Z,10.93
2024-02-18T18:10:45.275Z,10.93
2024-02-18T18:13:12.274Z,10.89
2024-02-18T18:15:39.333Z,10.89
2024-02-18T18:18:06.370Z,10.90
2024-02-18T18:20:33.513Z,10.90
2024-02-18T18:23:00.358Z,10.92
2024-02-18T18:25:27.128Z,10.93
2024-02-18T18:27:54.003Z,10.89
2024-02-18T18:30:20.879Z,10.86
2024-02-18T18:32:48.614Z,10.83
2024-02-18T18:35:15.500Z,10.83
2024-02-18T18:37:42.506Z,10.82
2024-02-18T18:40:09.875Z,10.83
2024-02-18T18:42:38.017Z,10.85
2024-02-18T18:45:08.498Z,10.80
2024-02-18T18:47:36.081Z,10.81
2024-02-18T18:50:05.973Z,10.81
2024-02-18T18:52:33.634Z,10.80
2024-02-18T18:55:00.815Z,10.80
2024-02-18T18:57:28.419Z,10.77
2024-02-18T18:59:55.166Z,10.79
2024-02-18T19:02:21.981Z,10.77
2024-02-18T19:04:49.422Z,10.77
2024-02-18T19:07:18.792Z,10.77
2024-02-18T19:09:45.594Z,10.75
2024-02-18T19:12:12.408Z,10.74
2024-02-18T19:14:39.099Z,10.76
2024-02-18T19:17:05.882Z,10.73
2024-02-18T19:19:32.741Z,10.73
2024-02-18T19:22:00.980Z,10.66
2024-02-18T19:24:27.986Z,10.72
2024-02-18T19:26:54.666Z,10.60
2024-02-18T19:29:23.629Z,10.63
2024-02-18T19:31:52.755Z,10.63
2024-02-18T19:34:19.673Z,10.65
2024-02-18T19:36:51.213Z,10.64
2024-02-18T19:39:18.304Z,10.54
2024-02-18T19:41:46.577Z,10.63
2024-02-18T19:44:13.616Z,10.55
2024-02-18T19:46:41.918Z,10.62
2024-02-18T19:49:09.322Z,10.63
2024-02-18T19:51:36.152Z,10.56
2024-02-18T19:54:02.984Z,10.53
2024-02-18T19:56:30.202Z,10.46
2024-02-18T19:58:57.055Z,10.50
2024-02-18T20:01:24.196Z,10.53
2024-02-18T20:03:51.523Z,10.41
2024-02-18T20:06:18.605Z,10.48
2024-02-18T20:08:45.625Z,10.50
2024-02-18T20:11:12.452Z,10.38
2024-02-18T20:13:39.149Z,10.47
2024-02-18T20:16:06.366Z,10.34
2024-02-18T20:18:33.773Z,10.38
2024-02-18T20:21:02.825Z,10.36
2024-02-18T20:23:29.639Z,10.36
2024-02-18T20:25:56.430Z,10.41
2024-02-18T20:28:23.399Z,10.32
2024-02-18T20:30:50.570Z,10.30
2024-02-18T20:33:17.491Z,10.27
2024-02-18T20:35:45.410Z,10.25
2024-02-18T20:38:12.195Z,10.34
2024-02-18T20:40:39.108Z,10.38
2024-02-18T20:43:06.027Z,10.36
2024-02-18T20:45:33.435Z,10.43
2024-02-18T20:48:00.498Z,10.40
2024-02-18T20:50:27.366Z,10.36
2024-02-18T20:52:54.160Z,10.36
2024-02-18T20:55:23.566Z,10.35
2024-02-18T20:57:50.944Z,10.37
2024-02-18T21:00:18.054Z,10.35
2024-02-18T21:02:45.521Z,10.32
2024-02-18T21:05:13.463Z,10.24
2024-02-18T21:07:40.550Z,10.34
2024-02-18T21:10:07.810Z,10.37
2024-02-18T21:12:35.178Z,10.40
2024-02-18T21:15:02.181Z,10.43
2024-02-18T21:17:29.248Z,10.43
2024-02-18T21:19:56.359Z,10.45
2024-02-18T21:22:23.302Z,10.48
2024-02-18T21:24:50.154Z,10.47
2024-02-18T21:27:16.942Z,10.43
2024-02-18T21:29:43.778Z,10.45
2024-02-18T21:32:11.915Z,10.46
2024-02-18T21:34:39.112Z,10.47
2024-02-18T21:37:06.042Z,10.46
2024-02-18T21:39:41.012Z,10.49
2024-02-18T21:42:14.747Z,10.48
2024-02-18T21:44:41.721Z,10.51
2024-02-18T21:47:08.525Z,10.49
2024-02-18T21:49:36.203Z,10.37
2024-02-18T21:52:03.997Z,10.45
2024-02-18T21:54:31.062Z,10.47
2024-02-18T21:56:58.025Z,10.47
2024-02-18T21:59:25.005Z,10.48
2024-02-18T22:01:53.308Z,10.44
2024-02-18T22:04:20.682Z,10.45
2024-02-18T22:06:59.599Z,10.45
2024-02-18T22:09:34.471Z,10.45
2024-02-18T22:12:01.199Z,10.48
2024-02-18T22:14:28.096Z,10.49
2024-02-18T22:16:54.992Z,10.48
2024-02-18T22:19:21.895Z,10.46
2024-02-18T22:21:48.814Z,10.49
2024-02-18T22:24:15.709Z,10.51
2024-02-18T22:26:42.596Z,10.50
2024-02-18T22:29:09.506Z,10.48
2024-02-18T22:31:36.287Z,10.49
2024-02-18T22:34:03.277Z,10.52
2024-02-18T22:36:30.169Z,10.52
2024-02-18T22:38:57.214Z,10.46
2024-02-18T22:41:24.030Z,10.49
2024-02-18T22:43:50.759Z,10.51
2024-02-18T22:46:17.750Z,10.47
2024-02-18T22:48:44.696Z,10.47
2024-02-18T22:51:11.577Z,10.50
2024-02-18T22:53:42.145Z,10.51
2024-02-18T22:56:09.536Z,10.50
2024-02-18T22:58:37.124Z,10.50
2024-02-18T23:01:04.654Z,10.50
2024-02-18T23:03:31.466Z,10.50
2024-02-18T23:05:58.250Z,10.49
2024-02-18T23:08:25.299Z,10.50
2024-02-18T23:10:52.238Z,10.48
2024-02-18T23:13:19.303Z,10.52
2024-02-18T23:15:46.490Z,10.47
2024-02-18T23:18:13.366Z,10.46
2024-02-18T23:20:40.624Z,10.40
2024-02-18T23:23:07.870Z,10.47
2024-02-18T23:25:34.758Z,10.46
2024-02-18T23:28:01.600Z,10.46
2024-02-18T23:30:28.405Z,10.49
2024-02-18T23:32:55.645Z,10.49
2024-02-18T23:35:25.216Z,10.46
2024-02-18T23:37:52.140Z,10.47
2024-02-18T23:40:19.136Z,10.43
2024-02-18T23:42:46.030Z,10.47
2024-02-18T23:45:12.819Z,10.50
2024-02-18T23:47:39.674Z,10.48
2024-02-18T23:50:07.106Z,10.49
2024-02-18T23:52:33.961Z,10.47
2024-02-18T23:55:00.806Z,10.49
2024-02-18T23:57:27.820Z,10.47
2024-02-18T23:59:54.741Z,10.45
